sensor_id;sensor_type;location;lat;lon;timestamp;P1;durP1;ratioP1;P2;durP2;ratioP2
11735;SDS011;5924;51.398;7.088;2024-03-23T00:54:35;12.80;;;2.93;;
11735;SDS011;5924;51.398;7.088;2024-03-23T00:57:01;10.47;;;3.30;;
11735;SDS011;5924;51.398;7.088;2024-03-23T00:59:27;10.73;;;2.87;;
11735;SDS011;5924;51.398;7.088;2024-03-23T01:01:53;24.30;;;3.97;;
11735;SDS011;5924;51.398;7.088;2024-03-23T01:04:19;12.87;;;3.47;;
11735;SDS011;5924;51.398;7.088;2024-03-23T01:06:49;23.13;;;4.00;;
11735;SDS011;5924;51.398;7.088;2024-03-23T01:09:15;20.47;;;4.03;;
11735;SDS011;5924;51.398;7.088;2024-03-23T01:11:41;13.13;;;4.40;;
11735;SDS011;5924;51.398;7.088;2024-03-23T01:14:07;17.67;;;3.90;;
11735;SDS011;5924;51.398;7.088;2024-03-23T01:16:32;18.30;;;3.80;;
11735;SDS011;5924;51.398;7.088;2024-03-23T01:18:58;12.03;;;3.90;;
11735;SDS011;5924;51.398;7.088;2024-03-23T01:21:24;17.50;;;3.60;;
11735;SDS011;5924;51.398;7.088;2024-03-23T01:23:49;14.77;;;4.00;;
11735;SDS011;5924;51.398;7.088;2024-03-23T01:26:15;16.83;;;2.73;;
11735;SDS011;5924;51.398;7.088;2024-03-23T01:28:41;12.30;;;2.70;;
11735;SDS011;5924;51.398;7.088;2024-03-23T01:31:07;8.60;;;2.73;;
11735;SDS011;5924;51.398;7.088;2024-03-23T01:33:32;13.77;;;3.53;;
11735;SDS011;5924;51.398;7.088;2024-03-23T01:35:58;14.43;;;3.10;;
11735;SDS011;5924;51.398;7.088;2024-03-23T01:38:24;8.00;;;2.73;;
11735;SDS011;5924;51.398;7.088;2024-03-23T01:40:54;18.43;;;4.03;;
11735;SDS011;5924;51.398;7.088;2024-03-23T01:43:22;8.73;;;2.70;;
11735;SDS011;5924;51.398;7.088;2024-03-23T01:45:47;4.67;;;3.00;;
11735;SDS011;5924;51.398;7.088;2024-03-23T01:48:13;23.93;;;3.83;;
11735;SDS011;5924;51.398;7.088;2024-03-23T01:50:39;11.73;;;3.70;;
11735;SDS011;5924;51.398;7.088;2024-03-23T01:53:04;16.37;;;3.67;;
11735;SDS011;5924;51.398;7.088;2024-03-23T01:55:32;9.63;;;2.43;;
11735;SDS011;5924;51.398;7.088;2024-03-23T01:57:57;12.57;;;2.50;;
11735;SDS011;5924;51.398;7.088;2024-03-23T02:00:23;18.23;;;3.63;;
11735;SDS011;5924;51.398;7.088;2024-03-23T02:02:49;12.63;;;2.50;;
11735;SDS011;5924;51.398;7.088;2024-03-23T02:05:15;10.37;;;2.87;;
11735;SDS011;5924;51.398;7.088;2024-03-23T02:07:40;8.23;;;2.40;;
11735;SDS011;5924;51.398;7.088;2024-03-23T02:10:08;11.57;;;1.93;;
11735;SDS011;5924;51.398;7.088;2024-03-23T02:12:40;6.17;;;1.80;;
11735;SDS011;5924;51.398;7.088;2024-03-23T02:15:06;4.00;;;1.97;;
11735;SDS011;5924;51.398;7.088;2024-03-23T02:17:33;6.93;;;2.03;;
11735;SDS011;5924;51.398;7.088;2024-03-23T02:20:00;5.13;;;1.80;;
11735;SDS011;5924;51.398;7.088;2024-03-23T02:22:38;5.30;;;1.67;;
11735;SDS011;5924;51.398;7.088;2024-03-23T02:25:05;13.07;;;1.70;;
11735;SDS011;5924;51.398;7.088;2024-03-23T02:27:31;5.53;;;1.70;;
11735;SDS011;5924;51.398;7.088;2024-03-23T02:29:57;6.73;;;1.87;;
11735;SDS011;5924;51.398;7.088;2024-03-23T02:32:23;4.80;;;1.33;;
11735;SDS011;5924;51.398;7.088;2024-03-23T02:34:49;2.10;;;1.57;;
11735;SDS011;5924;51.398;7.088;2024-03-23T02:37:14;7.00;;;1.60;;
11735;SDS011;5924;51.398;7.088;2024-03-23T02:39:40;5.70;;;2.20;;
11735;SDS011;5924;51.398;7.088;2024-03-23T02:42:06;10.93;;;2.40;;
11735;SDS011;5924;51.398;7.088;2024-03-23T02:44:31;6.77;;;2.37;;
11735;SDS011;5924;51.398;7.088;2024-03-23T02:46:57;20.77;;;2.23;;
11735;SDS011;5924;51.398;7.088;2024-03-23T02:49:22;5.93;;;1.53;;
11735;SDS011;5924;51.398;7.088;2024-03-23T02:51:48;1.97;;;1.87;;
11735;SDS011;5924;51.398;7.088;2024-03-23T02:54:14;3.80;;;1.83;;
11735;SDS011;5924;51.398;7.088;2024-03-23T02:56:40;3.60;;;1.70;;
11735;SDS011;5924;51.398;7.088;2024-03-23T02:59:05;1.40;;;1.40;;
11735;SDS011;5924;51.398;7.088;2024-03-23T03:01:31;4.97;;;1.97;;
11735;SDS011;5924;51.398;7.088;2024-03-23T03:03:56;7.30;;;1.50;;
11735;SDS011;5924;51.398;7.088;2024-03-23T03:06:25;3.93;;;1.43;;
11735;SDS011;5924;51.398;7.088;2024-03-23T03:08:51;14.87;;;2.00;;
11735;SDS011;5924;51.398;7.088;2024-03-23T03:11:17;6.63;;;1.93;;
11735;SDS011;5924;51.398;7.088;2024-03-23T03:13:42;8.23;;;1.87;;
11735;SDS011;5924;51.398;7.088;2024-03-23T03:16:11;4.33;;;1.43;;
11735;SDS011;5924;51.398;7.088;2024-03-23T03:18:37;9.23;;;2.00;;
11735;SDS011;5924;51.398;7.088;2024-03-23T03:21:04;5.50;;;1.53;;
11735;SDS011;5924;51.398;7.088;2024-03-23T03:23:33;6.80;;;1.90;;
11735;SDS011;5924;51.398;7.088;2024-03-23T03:26:00;4.90;;;1.63;;
11735;SDS011;5924;51.398;7.088;2024-03-23T03:28:25;4.43;;;1.50;;
11735;SDS011;5924;51.398;7.088;2024-03-23T03:30:55;2.93;;;1.30;;
11735;SDS011;5924;51.398;7.088;2024-03-23T03:33:21;4.00;;;1.60;;
11735;SDS011;5924;51.398;7.088;2024-03-23T03:35:47;3.90;;;1.70;;
11735;SDS011;5924;51.398;7.088;2024-03-23T03:38:12;2.87;;;2.57;;
11735;SDS011;5924;51.398;7.088;2024-03-23T03:40:38;8.00;;;1.87;;
11735;SDS011;5924;51.398;7.088;2024-03-23T03:43:03;3.37;;;1.93;;
11735;SDS011;5924;51.398;7.088;2024-03-23T03:45:29;1.73;;;1.63;;
11735;SDS011;5924;51.398;7.088;2024-03-23T03:47:55;8.87;;;2.00;;
11735;SDS011;5924;51.398;7.088;2024-03-23T03:50:21;4.27;;;2.57;;
11735;SDS011;5924;51.398;7.088;2024-03-23T03:52:47;9.30;;;1.70;;
11735;SDS011;5924;51.398;7.088;2024-03-23T03:55:13;9.13;;;2.00;;
11735;SDS011;5924;51.398;7.088;2024-03-23T03:57:39;9.50;;;2.10;;
11735;SDS011;5924;51.398;7.088;2024-03-23T04:00:05;4.43;;;1.80;;
11735;SDS011;5924;51.398;7.088;2024-03-23T04:02:32;7.80;;;2.10;;
11735;SDS011;5924;51.398;7.088;2024-03-23T04:04:57;5.20;;;2.03;;
11735;SDS011;5924;51.398;7.088;2024-03-23T04:07:23;3.17;;;1.50;;
11735;SDS011;5924;51.398;7.088;2024-03-23T04:09:49;10.30;;;3.07;;
11735;SDS011;5924;51.398;7.088;2024-03-23T04:12:14;12.70;;;1.70;;
11735;SDS011;5924;51.398;7.088;2024-03-23T04:14:40;13.63;;;2.70;;
11735;SDS011;5924;51.398;7.088;2024-03-23T04:17:06;6.20;;;2.00;;
11735;SDS011;5924;51.398;7.088;2024-03-23T04:19:32;11.40;;;3.20;;
11735;SDS011;5924;51.398;7.088;2024-03-23T04:21:58;10.13;;;2.90;;
11735;SDS011;5924;51.398;7.088;2024-03-23T04:24:23;9.10;;;2.70;;
11735;SDS011;5924;51.398;7.088;2024-03-23T04:26:51;15.30;;;3.40;;
11735;SDS011;5924;51.398;7.088;2024-03-23T04:29:17;24.67;;;3.93;;
11735;SDS011;5924;51.398;7.088;2024-03-23T04:31:42;13.97;;;3.40;;
11735;SDS011;5924;51.398;7.088;2024-03-23T04:34:08;8.00;;;3.37;;
11735;SDS011;5924;51.398;7.088;2024-03-23T04:36:34;5.00;;;3.57;;
11735;SDS011;5924;51.398;7.088;2024-03-23T04:38:59;10.10;;;3.23;;
11735;SDS011;5924;51.398;7.088;2024-03-23T04:41:25;6.10;;;2.73;;
11735;SDS011;5924;51.398;7.088;2024-03-23T04:43:51;9.40;;;3.53;;
11735;SDS011;5924;51.398;7.088;2024-03-23T04:46:17;21.77;;;4.53;;
11735;SDS011;5924;51.398;7.088;2024-03-23T04:48:43;17.23;;;2.97;;
11735;SDS011;5924;51.398;7.088;2024-03-23T04:51:09;11.53;;;3.47;;
11735;SDS011;5924;51.398;7.088;2024-03-23T04:53:37;10.20;;;2.97;;
11735;SDS011;5924;51.398;7.088;2024-03-23T04:56:03;7.20;;;2.63;;
11735;SDS011;5924;51.398;7.088;2024-03-23T04:58:29;10.87;;;3.50;;
11735;SDS011;5924;51.398;7.088;2024-03-23T05:00:55;16.07;;;3.70;;
11735;SDS011;5924;51.398;7.088;2024-03-23T05:03:21;7.77;;;3.63;;
11735;SDS011;5924;51.398;7.088;2024-03-23T05:05:48;21.27;;;4.00;;
11735;SDS011;5924;51.398;7.088;2024-03-23T05:08:14;9.83;;;3.43;;
11735;SDS011;5924;51.398;7.088;2024-03-23T05:10:41;10.63;;;3.87;;
11735;SDS011;5924;51.398;7.088;2024-03-23T05:13:10;19.93;;;3.70;;
11735;SDS011;5924;51.398;7.088;2024-03-23T05:15:36;7.90;;;3.20;;
11735;SDS011;5924;51.398;7.088;2024-03-23T05:18:03;13.00;;;3.53;;
11735;SDS011;5924;51.398;7.088;2024-03-23T05:20:30;15.57;;;3.67;;
11735;SDS011;5924;51.398;7.088;2024-03-23T05:22:56;28.53;;;4.13;;
11735;SDS011;5924;51.398;7.088;2024-03-23T05:25:22;22.50;;;5.00;;
11735;SDS011;5924;51.398;7.088;2024-03-23T05:27:47;11.80;;;3.60;;
11735;SDS011;5924;51.398;7.088;2024-03-23T05:30:14;21.50;;;4.47;;
11735;SDS011;5924;51.398;7.088;2024-03-23T05:32:39;15.33;;;5.00;;
11735;SDS011;5924;51.398;7.088;2024-03-23T05:35:07;18.37;;;4.60;;
11735;SDS011;5924;51.398;7.088;2024-03-23T05:37:33;16.37;;;5.30;;
11735;SDS011;5924;51.398;7.088;2024-03-23T05:40:02;19.53;;;5.17;;
11735;SDS011;5924;51.398;7.088;2024-03-23T05:42:28;12.50;;;5.40;;
11735;SDS011;5924;51.398;7.088;2024-03-23T05:44:54;19.90;;;5.23;;
11735;SDS011;5924;51.398;7.088;2024-03-23T05:47:20;22.10;;;4.90;;
11735;SDS011;5924;51.398;7.088;2024-03-23T05:49:46;22.67;;;5.33;;
11735;SDS011;5924;51.398;7.088;2024-03-23T05:52:12;15.50;;;5.37;;
11735;SDS011;5924;51.398;7.088;2024-03-23T05:54:38;27.30;;;5.30;;
11735;SDS011;5924;51.398;7.088;2024-03-23T05:57:04;9.17;;;5.87;;
11735;SDS011;5924;51.398;7.088;2024-03-23T05:59:32;15.37;;;7.07;;
11735;SDS011;5924;51.398;7.088;2024-03-23T06:01:58;21.97;;;7.17;;
11735;SDS011;5924;51.398;7.088;2024-03-23T06:04:24;26.47;;;7.17;;
11735;SDS011;5924;51.398;7.088;2024-03-23T06:06:50;15.50;;;6.80;;
11735;SDS011;5924;51.398;7.088;2024-03-23T06:09:19;24.30;;;7.80;;
11735;SDS011;5924;51.398;7.088;2024-03-23T06:11:44;16.63;;;8.50;;
11735;SDS011;5924;51.398;7.088;2024-03-23T06:14:10;17.67;;;8.37;;
11735;SDS011;5924;51.398;7.088;2024-03-23T06:16:36;31.37;;;9.07;;
11735;SDS011;5924;51.398;7.088;2024-03-23T06:19:01;35.43;;;8.73;;
11735;SDS011;5924;51.398;7.088;2024-03-23T06:21:29;27.77;;;9.07;;
11735;SDS011;5924;51.398;7.088;2024-03-23T06:23:55;24.70;;;9.33;;
11735;SDS011;5924;51.398;7.088;2024-03-23T06:26:20;19.43;;;8.50;;
11735;SDS011;5924;51.398;7.088;2024-03-23T06:28:47;26.60;;;8.07;;
11735;SDS011;5924;51.398;7.088;2024-03-23T06:31:12;27.13;;;9.30;;
11735;SDS011;5924;51.398;7.088;2024-03-23T06:33:38;23.10;;;9.33;;
11735;SDS011;5924;51.398;7.088;2024-03-23T06:36:05;32.00;;;9.50;;
11735;SDS011;5924;51.398;7.088;2024-03-23T06:38:31;36.63;;;11.07;;
11735;SDS011;5924;51.398;7.088;2024-03-23T06:40:57;26.77;;;13.50;;
11735;SDS011;5924;51.398;7.088;2024-03-23T06:43:23;39.73;;;12.83;;
11735;SDS011;5924;51.398;7.088;2024-03-23T06:45:52;35.63;;;12.77;;
11735;SDS011;5924;51.398;7.088;2024-03-23T06:48:19;37.50;;;14.23;;
11735;SDS011;5924;51.398;7.088;2024-03-23T06:50:45;39.33;;;14.50;;
11735;SDS011;5924;51.398;7.088;2024-03-23T06:53:11;41.30;;;15.40;;
11735;SDS011;5924;51.398;7.088;2024-03-23T06:55:40;35.53;;;16.40;;
11735;SDS011;5924;51.398;7.088;2024-03-23T06:58:07;46.23;;;17.20;;
11735;SDS011;5924;51.398;7.088;2024-03-23T07:00:33;39.53;;;17.50;;
11735;SDS011;5924;51.398;7.088;2024-03-23T07:03:02;35.70;;;15.13;;
11735;SDS011;5924;51.398;7.088;2024-03-23T07:05:28;47.03;;;16.90;;
11735;SDS011;5924;51.398;7.088;2024-03-23T07:07:54;41.33;;;16.40;;
11735;SDS011;5924;51.398;7.088;2024-03-23T07:10:20;49.03;;;18.80;;
11735;SDS011;5924;51.398;7.088;2024-03-23T07:12:45;44.00;;;18.73;;
11735;SDS011;5924;51.398;7.088;2024-03-23T07:15:11;42.07;;;18.30;;
11735;SDS011;5924;51.398;7.088;2024-03-23T07:17:37;53.67;;;19.73;;
11735;SDS011;5924;51.398;7.088;2024-03-23T07:20:02;45.43;;;20.03;;
11735;SDS011;5924;51.398;7.088;2024-03-23T07:22:29;55.93;;;20.20;;
11735;SDS011;5924;51.398;7.088;2024-03-23T07:25:01;41.93;;;18.87;;
11735;SDS011;5924;51.398;7.088;2024-03-23T07:27:27;45.60;;;17.70;;
11735;SDS011;5924;51.398;7.088;2024-03-23T07:29:52;45.10;;;17.60;;
11735;SDS011;5924;51.398;7.088;2024-03-23T07:32:18;41.97;;;16.40;;
11735;SDS011;5924;51.398;7.088;2024-03-23T07:34:44;41.70;;;16.53;;
11735;SDS011;5924;51.398;7.088;2024-03-23T07:37:10;37.87;;;14.03;;
11735;SDS011;5924;51.398;7.088;2024-03-23T07:39:36;34.33;;;13.73;;
11735;SDS011;5924;51.398;7.088;2024-03-23T07:42:02;23.47;;;12.40;;
11735;SDS011;5924;51.398;7.088;2024-03-23T07:44:27;32.83;;;12.50;;
11735;SDS011;5924;51.398;7.088;2024-03-23T07:46:53;23.13;;;12.03;;
11735;SDS011;5924;51.398;7.088;2024-03-23T07:49:19;30.03;;;10.10;;
11735;SDS011;5924;51.398;7.088;2024-03-23T07:51:44;30.53;;;12.47;;
11735;SDS011;5924;51.398;7.088;2024-03-23T07:54:10;25.10;;;10.70;;
11735;SDS011;5924;51.398;7.088;2024-03-23T07:56:36;22.27;;;10.13;;
11735;SDS011;5924;51.398;7.088;2024-03-23T07:59:02;25.00;;;11.33;;
11735;SDS011;5924;51.398;7.088;2024-03-23T08:01:30;30.60;;;11.57;;
11735;SDS011;5924;51.398;7.088;2024-03-23T08:03:56;23.83;;;10.03;;
11735;SDS011;5924;51.398;7.088;2024-03-23T08:06:21;32.50;;;8.93;;
11735;SDS011;5924;51.398;7.088;2024-03-23T08:08:51;18.13;;;8.53;;
11735;SDS011;5924;51.398;7.088;2024-03-23T08:11:25;34.03;;;8.90;;
11735;SDS011;5924;51.398;7.088;2024-03-23T08:13:54;28.20;;;7.93;;
11735;SDS011;5924;51.398;7.088;2024-03-23T08:16:20;23.80;;;7.60;;
11735;SDS011;5924;51.398;7.088;2024-03-23T08:18:46;15.10;;;6.60;;
11735;SDS011;5924;51.398;7.088;2024-03-23T08:21:12;16.83;;;7.30;;
11735;SDS011;5924;51.398;7.088;2024-03-23T08:23:38;21.50;;;6.93;;
11735;SDS011;5924;51.398;7.088;2024-03-23T08:26:05;9.57;;;5.63;;
11735;SDS011;5924;51.398;7.088;2024-03-23T08:28:31;23.07;;;6.07;;
11735;SDS011;5924;51.398;7.088;2024-03-23T08:31:00;19.20;;;6.17;;
11735;SDS011;5924;51.398;7.088;2024-03-23T08:33:30;14.20;;;6.83;;
11735;SDS011;5924;51.398;7.088;2024-03-23T08:35:57;22.53;;;6.13;;
11735;SDS011;5924;51.398;7.088;2024-03-23T08:38:24;23.20;;;6.93;;
11735;SDS011;5924;51.398;7.088;2024-03-23T08:41:11;18.40;;;7.10;;
11735;SDS011;5924;51.398;7.088;2024-03-23T08:43:37;12.43;;;6.13;;
11735;SDS011;5924;51.398;7.088;2024-03-23T08:48:34;13.70;;;5.70;;
11735;SDS011;5924;51.398;7.088;2024-03-23T08:51:04;14.70;;;7.10;;
11735;SDS011;5924;51.398;7.088;2024-03-23T08:53:31;23.30;;;6.27;;
11735;SDS011;5924;51.398;7.088;2024-03-23T08:55:57;14.17;;;6.67;;
11735;SDS011;5924;51.398;7.088;2024-03-23T08:58:24;17.83;;;7.50;;
11735;SDS011;5924;51.398;7.088;2024-03-23T09:00:51;9.83;;;2.93;;
11735;SDS011;5924;51.398;7.088;2024-03-23T09:03:17;10.53;;;3.57;;
11735;SDS011;5924;51.398;7.088;2024-03-23T09:05:43;5.33;;;1.87;;
11735;SDS011;5924;51.398;7.088;2024-03-23T09:08:08;2.93;;;1.20;;
11735;SDS011;5924;51.398;7.088;2024-03-23T09:10:40;3.50;;;1.37;;
11735;SDS011;5924;51.398;7.088;2024-03-23T09:13:06;2.33;;;1.33;;
11735;SDS011;5924;51.398;7.088;2024-03-23T09:15:33;1.40;;;1.30;;
11735;SDS011;5924;51.398;7.088;2024-03-23T09:18:00;3.20;;;1.00;;
11735;SDS011;5924;51.398;7.088;2024-03-23T09:20:27;2.03;;;0.90;;
11735;SDS011;5924;51.398;7.088;2024-03-23T09:22:53;4.63;;;1.67;;
11735;SDS011;5924;51.398;7.088;2024-03-23T09:25:19;2.10;;;1.20;;
11735;SDS011;5924;51.398;7.088;2024-03-23T09:27:47;3.07;;;1.87;;
11735;SDS011;5924;51.398;7.088;2024-03-23T09:30:14;7.33;;;2.70;;
11735;SDS011;5924;51.398;7.088;2024-03-23T09:32:41;3.37;;;2.90;;
11735;SDS011;5924;51.398;7.088;2024-03-23T09:35:08;11.43;;;4.73;;
11735;SDS011;5924;51.398;7.088;2024-03-23T09:37:34;6.30;;;5.30;;
11735;SDS011;5924;51.398;7.088;2024-03-23T09:40:00;11.33;;;5.90;;
11735;SDS011;5924;51.398;7.088;2024-03-23T09:42:25;11.53;;;6.00;;
11735;SDS011;5924;51.398;7.088;2024-03-23T09:44:51;18.17;;;6.70;;
11735;SDS011;5924;51.398;7.088;2024-03-23T09:47:20;14.20;;;7.30;;
11735;SDS011;5924;51.398;7.088;2024-03-23T09:49:46;10.50;;;7.60;;
11735;SDS011;5924;51.398;7.088;2024-03-23T09:52:12;12.90;;;7.40;;
11735;SDS011;5924;51.398;7.088;2024-03-23T09:54:37;13.30;;;6.77;;
11735;SDS011;5924;51.398;7.088;2024-03-23T09:57:03;11.80;;;6.83;;
11735;SDS011;5924;51.398;7.088;2024-03-23T09:59:31;18.97;;;5.40;;
11735;SDS011;5924;51.398;7.088;2024-03-23T10:01:59;12.90;;;3.77;;
11735;SDS011;5924;51.398;7.088;2024-03-23T10:04:38;8.03;;;4.40;;
11735;SDS011;5924;51.398;7.088;2024-03-23T10:07:12;13.23;;;5.30;;
11735;SDS011;5924;51.398;7.088;2024-03-23T10:09:39;8.20;;;3.27;;
11735;SDS011;5924;51.398;7.088;2024-03-23T10:12:11;8.70;;;3.10;;
11735;SDS011;5924;51.398;7.088;2024-03-23T10:14:41;11.83;;;4.47;;
11735;SDS011;5924;51.398;7.088;2024-03-23T10:19:46;10.80;;;3.70;;
11735;SDS011;5924;51.398;7.088;2024-03-23T10:22:15;3.60;;;2.23;;
11735;SDS011;5924;51.398;7.088;2024-03-23T10:24:44;11.63;;;4.43;;
11735;SDS011;5924;51.398;7.088;2024-03-23T10:27:19;7.23;;;2.80;;
11735;SDS011;5924;51.398;7.088;2024-03-23T10:29:46;4.77;;;2.93;;
11735;SDS011;5924;51.398;7.088;2024-03-23T10:32:13;7.27;;;2.77;;
11735;SDS011;5924;51.398;7.088;2024-03-23T10:34:40;7.53;;;2.40;;
11735;SDS011;5924;51.398;7.088;2024-03-23T10:37:06;5.27;;;3.17;;
11735;SDS011;5924;51.398;7.088;2024-03-23T10:39:33;3.23;;;2.30;;
11735;SDS011;5924;51.398;7.088;2024-03-23T10:42:06;3.77;;;2.00;;
11735;SDS011;5924;51.398;7.088;2024-03-23T10:44:33;10.77;;;2.37;;
11735;SDS011;5924;51.398;7.088;2024-03-23T10:47:03;6.10;;;2.23;;
11735;SDS011;5924;51.398;7.088;2024-03-23T10:49:30;12.63;;;2.97;;
11735;SDS011;5924;51.398;7.088;2024-03-23T10:51:58;4.50;;;2.30;;
11735;SDS011;5924;51.398;7.088;2024-03-23T10:54:28;5.50;;;2.37;;
11735;SDS011;5924;51.398;7.088;2024-03-23T10:57:17;11.30;;;2.33;;
11735;SDS011;5924;51.398;7.088;2024-03-23T10:59:42;4.07;;;1.70;;
11735;SDS011;5924;51.398;7.088;2024-03-23T11:02:18;2.30;;;0.73;;
11735;SDS011;5924;51.398;7.088;2024-03-23T11:04:44;3.80;;;0.73;;
11735;SDS011;5924;51.398;7.088;2024-03-23T11:09:54;2.00;;;0.70;;
11735;SDS011;5924;51.398;7.088;2024-03-23T11:14:51;1.47;;;0.50;;
11735;SDS011;5924;51.398;7.088;2024-03-23T11:17:21;0.80;;;0.80;;
11735;SDS011;5924;51.398;7.088;2024-03-23T11:25:21;3.97;;;1.20;;
11735;SDS011;5924;51.398;7.088;2024-03-23T11:27:51;2.60;;;1.00;;
11735;SDS011;5924;51.398;7.088;2024-03-23T11:30:35;1.90;;;0.80;;
11735;SDS011;5924;51.398;7.088;2024-03-23T11:33:03;0.87;;;0.87;;
11735;SDS011;5924;51.398;7.088;2024-03-23T11:38:07;1.43;;;0.90;;
11735;SDS011;5924;51.398;7.088;2024-03-23T11:43:04;1.03;;;0.90;;
11735;SDS011;5924;51.398;7.088;2024-03-23T11:45:35;1.47;;;1.00;;
11735;SDS011;5924;51.398;7.088;2024-03-23T11:48:05;4.53;;;1.37;;
11735;SDS011;5924;51.398;7.088;2024-03-23T11:50:33;1.20;;;1.20;;
11735;SDS011;5924;51.398;7.088;2024-03-23T11:55:58;1.70;;;1.60;;
11735;SDS011;5924;51.398;7.088;2024-03-23T11:58:28;4.67;;;1.67;;
11735;SDS011;5924;51.398;7.088;2024-03-23T12:00:58;2.83;;;1.60;;
11735;SDS011;5924;51.398;7.088;2024-03-23T12:03:25;2.20;;;1.23;;
11735;SDS011;5924;51.398;7.088;2024-03-23T12:05:53;1.23;;;1.17;;
11735;SDS011;5924;51.398;7.088;2024-03-23T12:08:21;1.50;;;1.40;;
11735;SDS011;5924;51.398;7.088;2024-03-23T12:10:52;4.20;;;1.03;;
11735;SDS011;5924;51.398;7.088;2024-03-23T12:13:19;1.80;;;0.90;;
11735;SDS011;5924;51.398;7.088;2024-03-23T12:15:47;2.83;;;0.80;;
11735;SDS011;5924;51.398;7.088;2024-03-23T12:18:16;1.90;;;0.70;;
11735;SDS011;5924;51.398;7.088;2024-03-23T12:20:42;4.17;;;0.80;;
11735;SDS011;5924;51.398;7.088;2024-03-23T12:23:08;1.17;;;0.63;;
11735;SDS011;5924;51.398;7.088;2024-03-23T12:25:37;2.83;;;0.70;;
11735;SDS011;5924;51.398;7.088;2024-03-23T12:28:06;2.00;;;0.77;;
11735;SDS011;5924;51.398;7.088;2024-03-23T12:30:36;0.60;;;0.60;;
11735;SDS011;5924;51.398;7.088;2024-03-23T12:33:06;1.17;;;1.00;;
11735;SDS011;5924;51.398;7.088;2024-03-23T12:35:32;1.07;;;0.73;;
11735;SDS011;5924;51.398;7.088;2024-03-23T12:37:58;0.73;;;0.53;;
11735;SDS011;5924;51.398;7.088;2024-03-23T12:40:24;1.23;;;0.90;;
11735;SDS011;5924;51.398;7.088;2024-03-23T12:42:50;4.67;;;0.80;;
11735;SDS011;5924;51.398;7.088;2024-03-23T12:45:15;1.10;;;0.67;;
11735;SDS011;5924;51.398;7.088;2024-03-23T12:47:41;0.90;;;0.90;;
11735;SDS011;5924;51.398;7.088;2024-03-23T12:50:07;3.30;;;0.80;;
11735;SDS011;5924;51.398;7.088;2024-03-23T12:52:34;1.00;;;1.00;;
11735;SDS011;5924;51.398;7.088;2024-03-23T12:55:00;3.57;;;1.63;;
11735;SDS011;5924;51.398;7.088;2024-03-23T12:57:26;1.57;;;1.47;;
11735;SDS011;5924;51.398;7.088;2024-03-23T12:59:52;3.30;;;1.20;;
11735;SDS011;5924;51.398;7.088;2024-03-23T13:02:21;1.23;;;1.20;;
11735;SDS011;5924;51.398;7.088;2024-03-23T13:04:50;2.30;;;1.50;;
11735;SDS011;5924;51.398;7.088;2024-03-23T13:07:20;2.03;;;1.40;;
11735;SDS011;5924;51.398;7.088;2024-03-23T13:09:46;2.87;;;1.47;;
11735;SDS011;5924;51.398;7.088;2024-03-23T13:12:12;2.63;;;1.37;;
11735;SDS011;5924;51.398;7.088;2024-03-23T13:14:41;4.37;;;1.27;;
11735;SDS011;5924;51.398;7.088;2024-03-23T13:17:07;1.43;;;1.33;;
11735;SDS011;5924;51.398;7.088;2024-03-23T13:19:33;3.33;;;1.37;;
11735;SDS011;5924;51.398;7.088;2024-03-23T13:21:59;3.67;;;1.23;;
11735;SDS011;5924;51.398;7.088;2024-03-23T13:24:29;4.60;;;1.60;;
11735;SDS011;5924;51.398;7.088;2024-03-23T13:26:55;3.57;;;1.00;;
11735;SDS011;5924;51.398;7.088;2024-03-23T13:29:21;5.50;;;0.80;;
11735;SDS011;5924;51.398;7.088;2024-03-23T13:31:48;1.67;;;0.73;;
11735;SDS011;5924;51.398;7.088;2024-03-23T13:34:14;1.50;;;0.83;;
11735;SDS011;5924;51.398;7.088;2024-03-23T13:36:41;0.80;;;0.73;;
11735;SDS011;5924;51.398;7.088;2024-03-23T13:39:08;1.80;;;1.00;;
11735;SDS011;5924;51.398;7.088;2024-03-23T13:41:39;5.17;;;1.23;;
11735;SDS011;5924;51.398;7.088;2024-03-23T13:44:06;4.00;;;1.20;;
11735;SDS011;5924;51.398;7.088;2024-03-23T13:46:32;1.07;;;1.07;;
11735;SDS011;5924;51.398;7.088;2024-03-23T13:48:58;1.60;;;1.10;;
11735;SDS011;5924;51.398;7.088;2024-03-23T13:51:24;1.23;;;1.00;;
11735;SDS011;5924;51.398;7.088;2024-03-23T13:53:52;5.73;;;1.03;;
11735;SDS011;5924;51.398;7.088;2024-03-23T13:56:24;5.27;;;1.40;;
11735;SDS011;5924;51.398;7.088;2024-03-23T13:58:50;1.57;;;1.30;;
11735;SDS011;5924;51.398;7.088;2024-03-23T14:01:16;4.00;;;1.17;;
11735;SDS011;5924;51.398;7.088;2024-03-23T14:03:42;2.60;;;1.47;;
11735;SDS011;5924;51.398;7.088;2024-03-23T14:06:09;2.77;;;1.20;;
11735;SDS011;5924;51.398;7.088;2024-03-23T14:08:36;1.83;;;1.20;;
11735;SDS011;5924;51.398;7.088;2024-03-23T14:11:05;2.57;;;1.40;;
11735;SDS011;5924;51.398;7.088;2024-03-23T14:13:31;2.80;;;1.17;;
11735;SDS011;5924;51.398;7.088;2024-03-23T14:15:57;4.13;;;0.90;;
11735;SDS011;5924;51.398;7.088;2024-03-23T14:18:23;1.50;;;0.83;;
11735;SDS011;5924;51.398;7.088;2024-03-23T14:20:49;2.70;;;1.07;;
11735;SDS011;5924;51.398;7.088;2024-03-23T14:23:15;3.90;;;1.20;;
11735;SDS011;5924;51.398;7.088;2024-03-23T14:25:42;4.43;;;1.37;;
11735;SDS011;5924;51.398;7.088;2024-03-23T14:28:07;2.63;;;1.20;;
11735;SDS011;5924;51.398;7.088;2024-03-23T14:30:39;3.23;;;1.47;;
11735;SDS011;5924;51.398;7.088;2024-03-23T14:33:08;1.47;;;1.00;;
11735;SDS011;5924;51.398;7.088;2024-03-23T14:35:34;1.50;;;0.90;;
11735;SDS011;5924;51.398;7.088;2024-03-23T14:38:08;0.87;;;0.70;;
11735;SDS011;5924;51.398;7.088;2024-03-23T14:40:33;3.00;;;0.80;;
11735;SDS011;5924;51.398;7.088;2024-03-23T14:42:59;3.20;;;1.10;;
11735;SDS011;5924;51.398;7.088;2024-03-23T14:45:25;1.77;;;1.20;;
11735;SDS011;5924;51.398;7.088;2024-03-23T14:47:50;5.40;;;1.40;;
11735;SDS011;5924;51.398;7.088;2024-03-23T14:50:16;1.90;;;1.23;;
11735;SDS011;5924;51.398;7.088;2024-03-23T14:52:44;3.47;;;1.43;;
11735;SDS011;5924;51.398;7.088;2024-03-23T14:55:10;5.10;;;1.27;;
11735;SDS011;5924;51.398;7.088;2024-03-23T14:57:36;1.70;;;1.10;;
11735;SDS011;5924;51.398;7.088;2024-03-23T15:00:04;1.43;;;1.13;;
11735;SDS011;5924;51.398;7.088;2024-03-23T15:02:33;2.53;;;1.10;;
11735;SDS011;5924;51.398;7.088;2024-03-23T15:04:59;1.90;;;1.40;;
11735;SDS011;5924;51.398;7.088;2024-03-23T15:07:26;3.40;;;1.17;;
11735;SDS011;5924;51.398;7.088;2024-03-23T15:09:53;3.17;;;1.10;;
11735;SDS011;5924;51.398;7.088;2024-03-23T15:12:18;1.90;;;1.13;;
11735;SDS011;5924;51.398;7.088;2024-03-23T15:14:44;2.83;;;1.00;;
11735;SDS011;5924;51.398;7.088;2024-03-23T15:17:11;5.47;;;1.30;;
11735;SDS011;5924;51.398;7.088;2024-03-23T15:19:36;2.73;;;1.07;;
11735;SDS011;5924;51.398;7.088;2024-03-23T15:22:02;1.20;;;1.10;;
11735;SDS011;5924;51.398;7.088;2024-03-23T15:24:28;1.20;;;1.10;;
11735;SDS011;5924;51.398;7.088;2024-03-23T15:26:54;1.07;;;0.73;;
11735;SDS011;5924;51.398;7.088;2024-03-23T15:29:23;1.80;;;1.00;;
11735;SDS011;5924;51.398;7.088;2024-03-23T15:31:48;3.73;;;1.30;;
11735;SDS011;5924;51.398;7.088;2024-03-23T15:34:17;3.50;;;1.37;;
11735;SDS011;5924;51.398;7.088;2024-03-23T15:36:49;6.33;;;1.40;;
11735;SDS011;5924;51.398;7.088;2024-03-23T15:39:16;1.87;;;0.97;;
11735;SDS011;5924;51.398;7.088;2024-03-23T15:41:45;3.80;;;1.00;;
11735;SDS011;5924;51.398;7.088;2024-03-23T15:44:11;1.40;;;1.23;;
11735;SDS011;5924;51.398;7.088;2024-03-23T15:46:37;3.80;;;1.40;;
11735;SDS011;5924;51.398;7.088;2024-03-23T15:49:03;4.00;;;1.30;;
11735;SDS011;5924;51.398;7.088;2024-03-23T15:51:29;5.47;;;1.50;;
11735;SDS011;5924;51.398;7.088;2024-03-23T15:53:58;2.30;;;0.93;;
11735;SDS011;5924;51.398;7.088;2024-03-23T15:56:24;1.00;;;1.00;;
11735;SDS011;5924;51.398;7.088;2024-03-23T15:58:50;1.90;;;1.07;;
11735;SDS011;5924;51.398;7.088;2024-03-23T16:01:16;1.40;;;0.97;;
11735;SDS011;5924;51.398;7.088;2024-03-23T16:03:41;1.80;;;1.10;;
11735;SDS011;5924;51.398;7.088;2024-03-23T16:06:07;4.10;;;1.27;;
11735;SDS011;5924;51.398;7.088;2024-03-23T16:08:33;0.90;;;0.90;;
11735;SDS011;5924;51.398;7.088;2024-03-23T16:11:00;2.13;;;1.23;;